createdAt,value
2023-03-17T00:00:20.105Z,11.50
2023-03-17T00:02:23.268Z,11.50
2023-03-17T00:04:27.425Z,11.50
2023-03-17T00:06:30.799Z,11.50
2023-03-17T00:08:34.540Z,11.50
2023-03-17T00:10:39.661Z,11.50
2023-03-17T00:12:41.508Z,11.50
2023-03-17T00:14:46.187Z,11.40
2023-03-17T00:16:51.883Z,11.40
2023-03-17T00:18:54.827Z,11.50
2023-03-17T00:20:58.942Z,11.50
2023-03-17T00:23:06.999Z,11.50
2023-03-17T00:25:19.712Z,11.50
2023-03-17T00:27:21.901Z,11.50
2023-03-17T00:29:24.060Z,11.50
2023-03-17T00:31:29.408Z,11.40
2023-03-17T00:33:35.475Z,11.50
2023-03-17T00:35:38.253Z,11.40
2023-03-17T00:37:40.097Z,11.40
2023-03-17T00:39:42.981Z,11.40
2023-03-17T00:41:44.759Z,11.40
2023-03-17T00:43:46.498Z,11.40
2023-03-17T00:45:49.979Z,11.40
2023-03-17T00:47:55.021Z,11.40
2023-03-17T00:49:56.753Z,11.40
2023-03-17T00:52:01.134Z,11.40
2023-03-17T00:54:02.909Z,11.40
2023-03-17T00:56:11.302Z,11.40
2023-03-17T00:58:25.468Z,11.40
2023-03-17T01:00:32.638Z,11.40
2023-03-17T01:02:34.751Z,11.40
2023-03-17T01:04:39.658Z,11.40
2023-03-17T01:06:42.555Z,11.10
2023-03-17T01:08:44.791Z,11.30
2023-03-17T01:10:46.666Z,11.30
2023-03-17T01:12:50.566Z,11.30
2023-03-17T01:14:52.805Z,11.30
2023-03-17T01:16:55.068Z,11.20
2023-03-17T01:18:57.496Z,11.20
2023-03-17T01:20:59.200Z,11.20
2023-03-17T01:23:02.341Z,11.20
2023-03-17T01:25:04.916Z,11.20
2023-03-17T01:27:11.503Z,11.10
2023-03-17T01:29:14.780Z,11.10
2023-03-17T01:31:17.222Z,11.10
2023-03-17T01:33:19.010Z,11.00
2023-03-17T01:35:20.999Z,11.00
2023-03-17T01:37:25.514Z,11.00
2023-03-17T01:39:28.283Z,11.00
2023-03-17T01:41:37.490Z,10.90
2023-03-17T01:43:39.282Z,10.90
2023-03-17T01:46:18.024Z,10.90
2023-03-17T01:48:20.124Z,10.90
2023-03-17T01:50:24.377Z,10.80
2023-03-17T01:52:30.474Z,10.80
2023-03-17T01:54:56.227Z,10.80
2023-03-17T01:57:23.277Z,10.80
2023-03-17T01:59:32.474Z,10.80
2023-03-17T02:01:39.921Z,10.80
2023-03-17T02:03:43.099Z,10.70
2023-03-17T02:05:48.459Z,10.70
2023-03-17T02:07:51.262Z,10.70
2023-03-17T02:09:53.580Z,10.70
2023-03-17T02:11:56.922Z,10.70
2023-03-17T02:14:00.901Z,10.70
2023-03-17T02:16:03.834Z,10.70
2023-03-17T02:18:06.676Z,10.70
2023-03-17T02:20:17.482Z,10.60
2023-03-17T02:22:20.250Z,10.70
2023-03-17T02:24:39.658Z,10.60
2023-03-17T02:26:43.684Z,10.60
2023-03-17T02:28:48.128Z,10.60
2023-03-17T02:30:49.949Z,10.60
2023-03-17T02:32:52.934Z,10.60
2023-03-17T02:34:58.093Z,10.50
2023-03-17T02:37:00.196Z,10.50
2023-03-17T02:39:05.841Z,10.50
2023-03-17T02:41:09.622Z,10.50
2023-03-17T02:43:11.366Z,10.50
2023-03-17T02:45:14.233Z,10.50
2023-03-17T02:47:16.007Z,10.50
2023-03-17T02:49:20.420Z,10.50
2023-03-17T02:51:22.253Z,10.50
2023-03-17T02:53:23.919Z,10.50
2023-03-17T02:55:27.017Z,10.50
2023-03-17T02:57:28.704Z,10.50
2023-03-17T02:59:32.675Z,10.50
2023-03-17T03:01:35.045Z,10.50
2023-03-17T03:03:42.151Z,10.50
2023-03-17T03:05:46.060Z,10.50
2023-03-17T03:07:48.984Z,10.50
2023-03-17T03:09:50.879Z,10.50
2023-03-17T03:11:52.797Z,10.50
2023-03-17T03:13:54.477Z,10.50
2023-03-17T03:15:59.803Z,10.50
2023-03-17T03:18:01.541Z,10.50
2023-03-17T03:20:04.881Z,10.50
2023-03-17T03:22:06.591Z,10.50
2023-03-17T03:24:09.494Z,10.50
2023-03-17T03:26:12.059Z,10.50
2023-03-17T03:28:13.992Z,10.50
2023-03-17T03:30:15.769Z,10.50
2023-03-17T03:32:17.512Z,10.40
2023-03-17T03:34:19.716Z,10.50
2023-03-17T03:36:22.306Z,10.40
2023-03-17T03:38:23.977Z,10.40
2023-03-17T03:40:27.003Z,10.40
2023-03-17T03:42:31.404Z,10.40
2023-03-17T03:44:33.183Z,10.30
2023-03-17T03:46:35.160Z,10.40
2023-03-17T03:48:36.978Z,10.30
2023-03-17T03:50:39.338Z,10.30
2023-03-17T03:52:41.498Z,10.30
2023-03-17T03:54:50.555Z,10.30
2023-03-17T03:56:52.579Z,10.30
2023-03-17T03:58:54.245Z,10.30
2023-03-17T04:00:55.973Z,10.30
2023-03-17T04:02:57.870Z,10.40
2023-03-17T04:05:02.898Z,10.40
2023-03-17T04:07:04.716Z,10.40
2023-03-17T04:09:06.511Z,10.40
2023-03-17T04:11:11.139Z,10.40
2023-03-17T04:13:13.971Z,10.50
2023-03-17T04:15:17.555Z,10.50
2023-03-17T04:17:23.488Z,10.60
2023-03-17T04:19:25.285Z,10.60
2023-03-17T04:21:27.387Z,10.70
2023-03-17T04:23:31.487Z,10.70
2023-03-17T04:25:33.344Z,10.70
2023-03-17T04:27:36.042Z,10.70
2023-03-17T04:29:39.225Z,10.80
2023-03-17T04:31:41.287Z,10.80
2023-03-17T04:33:43.147Z,10.80
2023-03-17T04:35:46.158Z,10.80
2023-03-17T04:37:48.732Z,10.90
2023-03-17T04:39:51.278Z,10.90
2023-03-17T04:41:53.043Z,10.90
2023-03-17T04:43:54.840Z,10.90
2023-03-17T04:45:56.774Z,10.90
2023-03-17T04:47:58.492Z,10.90
2023-03-17T04:50:00.173Z,10.90
2023-03-17T04:52:01.887Z,10.90
2023-03-17T04:54:03.903Z,11.00
2023-03-17T04:56:06.289Z,10.90
2023-03-17T04:58:09.249Z,11.00
2023-03-17T05:00:12.955Z,11.00
2023-03-17T05:02:18.889Z,11.00
2023-03-17T05:04:31.141Z,11.00
2023-03-17T05:06:34.101Z,11.00
2023-03-17T05:08:38.023Z,11.00
2023-03-17T05:10:44.321Z,11.00
2023-03-17T05:12:46.053Z,11.00
2023-03-17T05:14:47.992Z,11.10
2023-03-17T05:16:50.596Z,11.10
2023-03-17T05:18:52.615Z,11.10
2023-03-17T05:20:54.907Z,11.10
2023-03-17T05:23:00.853Z,11.10
2023-03-17T05:25:03.825Z,11.00
2023-03-17T05:27:05.935Z,11.10
2023-03-17T05:29:08.876Z,11.10
2023-03-17T05:31:11.799Z,11.10
2023-03-17T05:33:14.660Z,11.10
2023-03-17T05:35:17.309Z,11.10
2023-03-17T05:37:19.027Z,11.10
2023-03-17T05:39:20.768Z,11.10
2023-03-17T05:41:23.000Z,11.10
2023-03-17T05:43:24.671Z,11.10
2023-03-17T05:45:27.018Z,11.10
2023-03-17T05:47:28.742Z,11.10
2023-03-17T05:49:32.693Z,11.00
2023-03-17T05:51:36.826Z,11.00
2023-03-17T05:53:38.842Z,11.00
2023-03-17T05:55:40.716Z,11.00
2023-03-17T05:57:42.434Z,11.00
2023-03-17T05:59:44.288Z,11.00
2023-03-17T06:01:46.031Z,11.00
2023-03-17T06:03:51.404Z,11.00
2023-03-17T06:05:53.227Z,11.00
2023-03-17T06:07:58.689Z,11.00
2023-03-17T06:10:03.972Z,11.00
2023-03-17T06:12:06.691Z,11.00
2023-03-17T06:14:08.489Z,11.00
2023-03-17T06:16:10.197Z,11.00
2023-03-17T06:18:11.924Z,11.00
2023-03-17T06:20:14.191Z,11.00
2023-03-17T06:22:18.087Z,11.00
2023-03-17T06:24:19.856Z,11.00
2023-03-17T06:26:21.911Z,11.00
2023-03-17T06:28:25.757Z,11.00
2023-03-17T06:30:27.636Z,11.00
2023-03-17T06:32:30.552Z,11.00
2023-03-17T06:34:32.559Z,11.00
2023-03-17T06:36:39.070Z,11.00
2023-03-17T06:38:41.491Z,11.00
2023-03-17T06:40:44.661Z,11.00
2023-03-17T06:42:48.716Z,11.00
2023-03-17T06:44:52.550Z,11.00
2023-03-17T06:46:57.075Z,11.00
2023-03-17T06:49:04.032Z,11.00
2023-03-17T06:51:06.341Z,11.00
2023-03-17T06:53:08.124Z,11.10
2023-03-17T06:55:10.626Z,11.00
2023-03-17T06:57:12.706Z,11.10
2023-03-17T06:59:14.416Z,11.00
2023-03-17T07:01:16.577Z,11.10
2023-03-17T07:03:18.436Z,11.10
2023-03-17T07:05:20.223Z,11.20
2023-03-17T07:07:23.944Z,11.20
2023-03-17T07:09:27.481Z,11.20
2023-03-17T07:11:30.631Z,11.30
2023-03-17T07:13:35.476Z,11.30
2023-03-17T07:15:39.941Z,11.40
2023-03-17T07:17:41.985Z,11.40
2023-03-17T07:19:46.673Z,11.50
2023-03-17T07:21:48.381Z,11.50
2023-03-17T07:23:50.110Z,11.60
2023-03-17T07:25:54.491Z,11.60
2023-03-17T07:27:56.663Z,11.70
2023-03-17T07:30:00.539Z,11.70
2023-03-17T07:32:02.525Z,11.70
2023-03-17T07:34:04.692Z,11.80
2023-03-17T07:36:08.833Z,11.80
2023-03-17T07:38:11.868Z,11.80
2023-03-17T07:40:19.075Z,11.90
2023-03-17T07:42:20.799Z,11.90
2023-03-17T07:44:23.872Z,11.90
2023-03-17T07:46:25.838Z,11.90
2023-03-17T07:48:30.760Z,11.90
2023-03-17T07:50:34.218Z,12.00
2023-03-17T07:52:39.720Z,12.00
2023-03-17T07:54:43.142Z,12.00
2023-03-17T07:56:45.186Z,12.00
2023-03-17T07:58:47.132Z,12.00
2023-03-17T08:00:48.975Z,12.10
2023-03-17T08:03:06.886Z,12.10
2023-03-17T08:05:13.242Z,12.10
2023-03-17T08:07:15.435Z,12.10
2023-03-17T08:09:22.261Z,12.10
2023-03-17T08:11:29.747Z,12.20
2023-03-17T08:13:32.706Z,12.20
2023-03-17T08:15:36.294Z,12.20
2023-03-17T08:17:39.627Z,12.20
2023-03-17T08:19:43.770Z,12.20
2023-03-17T08:21:45.584Z,12.20
2023-03-17T08:23:48.494Z,12.20
2023-03-17T08:25:50.239Z,12.20
2023-03-17T08:27:51.976Z,12.30
2023-03-17T08:29:53.683Z,12.30
2023-03-17T08:31:55.851Z,12.30
2023-03-17T08:34:00.184Z,12.30
2023-03-17T08:36:05.974Z,12.30
2023-03-17T08:38:08.235Z,12.40
2023-03-17T08:40:17.023Z,12.40
2023-03-17T08:42:20.520Z,12.40
2023-03-17T08:44:22.386Z,12.40
2023-03-17T08:46:30.469Z,12.40
2023-03-17T08:48:33.314Z,12.50
2023-03-17T08:50:35.365Z,12.50
2023-03-17T08:52:37.967Z,12.50
2023-03-17T08:54:39.680Z,12.50
2023-03-17T08:56:46.900Z,12.60
2023-03-17T08:58:52.514Z,12.60
2023-03-17T09:00:54.382Z,12.60
2023-03-17T09:02:59.690Z,12.70
2023-03-17T09:05:05.707Z,12.70
2023-03-17T09:07:09.607Z,12.80
2023-03-17T09:09:14.784Z,12.80
2023-03-17T09:11:21.010Z,12.80
2023-03-17T09:13:27.175Z,12.90
2023-03-17T09:15:30.412Z,12.90
2023-03-17T09:17:32.294Z,13.00
2023-03-17T09:19:34.169Z,13.00
2023-03-17T09:21:36.421Z,13.10
2023-03-17T09:23:38.392Z,13.10
2023-03-17T09:25:42.199Z,13.10
2023-03-17T09:27:44.563Z,13.10
2023-03-17T09:29:51.752Z,13.20
2023-03-17T09:31:56.405Z,13.20
2023-03-17T09:33:58.967Z,13.20
2023-03-17T09:36:00.759Z,13.30
2023-03-17T09:38:02.473Z,13.40
2023-03-17T09:40:08.414Z,13.40
2023-03-17T09:42:44.094Z,13.50
2023-03-17T09:44:57.675Z,13.60
2023-03-17T09:47:08.643Z,13.70
2023-03-17T09:49:19.863Z,13.80
2023-03-17T09:51:21.740Z,13.80
2023-03-17T09:54:02.373Z,13.90
2023-03-17T09:56:12.366Z,14.00
2023-03-17T09:58:14.425Z,14.00
2023-03-17T10:00:26.563Z,14.00
2023-03-17T10:02:34.001Z,14.10
2023-03-17T10:04:37.111Z,14.10
2023-03-17T10:06:40.949Z,14.20
2023-03-17T10:09:04.362Z,14.20
2023-03-17T10:11:33.016Z,14.30
2023-03-17T10:14:03.441Z,14.40
2023-03-17T10:16:14.270Z,14.40
2023-03-17T10:18:18.608Z,14.50
2023-03-17T10:20:27.973Z,14.50
2023-03-17T10:22:32.185Z,14.60
2023-03-17T10:24:43.061Z,14.70
2023-03-17T10:26:56.016Z,14.70
2023-03-17T10:28:59.629Z,14.80
2023-03-17T10:31:16.860Z,14.80
2023-03-17T10:33:21.870Z,14.90
2023-03-17T10:35:24.551Z,14.90
2023-03-17T10:37:29.568Z,14.90
2023-03-17T10:39:32.943Z,14.90
2023-03-17T10:41:41.795Z,15.00
2023-03-17T10:43:49.813Z,15.00
2023-03-17T10:46:03.228Z,15.10
2023-03-17T10:48:08.412Z,15.10
2023-03-17T10:50:28.665Z,15.10
2023-03-17T10:52:39.937Z,15.10
2023-03-17T10:54:48.221Z,15.20
2023-03-17T10:56:56.907Z,15.20
2023-03-17T10:59:14.888Z,15.20
2023-03-17T11:01:36.353Z,15.30
2023-03-17T11:03:40.102Z,15.30
2023-03-17T11:06:06.181Z,15.40
2023-03-17T11:08:14.954Z,15.40
2023-03-17T11:10:27.253Z,15.40
2023-03-17T11:12:41.684Z,15.50
2023-03-17T11:14:44.283Z,15.50
2023-03-17T11:16:57.259Z,15.60
2023-03-17T11:19:11.841Z,15.70
2023-03-17T11:21:24.187Z,15.70
2023-03-17T11:23:50.058Z,15.80
2023-03-17T11:26:05.782Z,15.80
2023-03-17T11:28:34.244Z,15.90
2023-03-17T11:31:02.260Z,16.00
2023-03-17T11:33:12.988Z,15.90
2023-03-17T11:35:46.428Z,16.00
2023-03-17T11:38:06.008Z,16.10
2023-03-17T11:40:07.993Z,16.10
2023-03-17T11:42:13.210Z,16.10
2023-03-17T11:44:26.717Z,16.20
2023-03-17T11:46:48.905Z,16.20
2023-03-17T11:48:56.389Z,16.20
2023-03-17T11:51:17.380Z,16.30
2023-03-17T11:53:26.330Z,16.40
2023-03-17T11:55:45.284Z,16.30
2023-03-17T11:57:50.361Z,16.40
2023-03-17T12:00:04.696Z,16.50
2023-03-17T12:02:28.561Z,16.50
2023-03-17T12:04:40.004Z,16.60
2023-03-17T12:06:51.334Z,16.70
2023-03-17T12:09:25.864Z,16.70
2023-03-17T12:11:34.976Z,16.80
2023-03-17T12:13:46.696Z,16.80
2023-03-17T12:15:58.165Z,16.80
2023-03-17T12:18:12.142Z,16.90
2023-03-17T12:20:21.393Z,16.90
2023-03-17T12:22:56.013Z,17.00
2023-03-17T12:25:30.626Z,17.00
2023-03-17T12:27:38.519Z,17.10
2023-03-17T12:29:49.738Z,17.10
2023-03-17T12:32:09.561Z,17.10
2023-03-17T12:34:21.226Z,17.10
2023-03-17T12:36:31.171Z,17.10
2023-03-17T12:38:40.882Z,17.00
2023-03-17T12:41:19.110Z,17.00
2023-03-17T12:43:50.418Z,17.10
2023-03-17T12:46:10.963Z,17.10
2023-03-17T12:48:33.885Z,17.10
2023-03-17T12:51:14.601Z,17.00
2023-03-17T12:53:24.683Z,17.20
2023-03-17T12:55:31.051Z,17.20
2023-03-17T12:57:45.842Z,17.20
2023-03-17T12:59:53.953Z,17.30
2023-03-17T13:02:16.137Z,17.20
2023-03-17T13:04:35.378Z,17.30
2023-03-17T13:06:59.726Z,17.30
2023-03-17T13:09:33.899Z,17.30
2023-03-17T13:11:38.426Z,17.30
2023-03-17T13:13:59.249Z,17.30
2023-03-17T13:16:04.330Z,17.30
2023-03-17T13:18:18.442Z,17.30
2023-03-17T13:20:21.003Z,17.30
2023-03-17T13:22:22.605Z,17.30
2023-03-17T13:24:36.054Z,17.20
2023-03-17T13:26:54.955Z,17.20
2023-03-17T13:29:03.367Z,17.20
2023-03-17T13:31:29.145Z,17.20
2023-03-17T13:33:31.878Z,17.20
2023-03-17T13:36:06.359Z,17.10
2023-03-17T13:38:43.735Z,17.10
2023-03-17T13:41:16.313Z,17.10
2023-03-17T13:43:18.850Z,17.10
2023-03-17T13:45:40.210Z,17.10
2023-03-17T13:47:43.276Z,17.10
2023-03-17T13:49:54.014Z,17.00
2023-03-17T13:52:13.361Z,17.10
2023-03-17T13:54:27.926Z,17.10
2023-03-17T13:56:41.581Z,17.10
2023-03-17T13:59:02.702Z,17.10
2023-03-17T14:01:07.175Z,17.10
2023-03-17T14:03:22.295Z,17.00
2023-03-17T14:05:35.560Z,17.00
2023-03-17T14:08:15.771Z,17.00
2023-03-17T14:10:23.574Z,17.00
2023-03-17T14:12:28.674Z,17.00
2023-03-17T14:15:08.587Z,17.00
2023-03-17T14:17:29.791Z,17.00
2023-03-17T14:19:32.213Z,16.90
2023-03-17T14:21:34.157Z,16.90
2023-03-17T14:23:35.938Z,16.80
2023-03-17T14:25:39.375Z,16.80
2023-03-17T14:27:48.775Z,16.80
2023-03-17T14:29:54.856Z,16.80
2023-03-17T14:32:13.140Z,16.80
2023-03-17T14:34:15.946Z,16.80
2023-03-17T14:36:19.077Z,16.70
2023-03-17T14:38:32.295Z,16.70
2023-03-17T14:40:36.782Z,16.70
2023-03-17T14:42:38.459Z,16.70
2023-03-17T14:44:42.892Z,16.70
2023-03-17T14:46:44.711Z,16.70
2023-03-17T14:48:49.595Z,16.70
2023-03-17T14:50:57.172Z,16.70
2023-03-17T14:53:01.385Z,16.70
2023-03-17T14:55:03.379Z,16.70
2023-03-17T14:57:07.893Z,16.70
2023-03-17T14:59:27.505Z,16.70
2023-03-17T15:01:41.932Z,16.70
2023-03-17T15:04:10.437Z,16.70
2023-03-17T15:06:30.030Z,16.70
2023-03-17T15:08:48.535Z,16.70
2023-03-17T15:10:50.510Z,16.70
2023-03-17T15:13:01.965Z,16.60
2023-03-17T15:15:11.090Z,16.60
2023-03-17T15:17:26.360Z,16.60
2023-03-17T15:19:44.328Z,16.60
2023-03-17T15:21:46.489Z,16.60
2023-03-17T15:23:48.729Z,16.60
2023-03-17T15:25:58.263Z,16.60
2023-03-17T15:28:00.506Z,16.60
2023-03-17T15:30:03.158Z,16.60
2023-03-17T15:32:19.186Z,16.60
2023-03-17T15:34:20.838Z,16.60
2023-03-17T15:36:32.360Z,16.60
2023-03-17T15:38:36.639Z,16.60
2023-03-17T15:40:38.329Z,16.60
2023-03-17T15:42:40.288Z,16.60
2023-03-17T15:44:42.048Z,16.60
2023-03-17T15:46:43.789Z,16.60
2023-03-17T15:48:46.501Z,16.60
2023-03-17T15:50:51.089Z,16.60
2023-03-17T15:52:58.868Z,16.60
2023-03-17T15:55:00.532Z,16.60
2023-03-17T15:57:04.851Z,16.60
2023-03-17T15:59:06.809Z,16.50
2023-03-17T16:01:10.552Z,16.60
2023-03-17T16:03:24.816Z,16.60
2023-03-17T16:05:31.120Z,16.60
2023-03-17T16:07:33.472Z,16.60
2023-03-17T16:09:35.986Z,16.60
2023-03-17T16:11:40.291Z,16.60
2023-03-17T16:13:46.577Z,16.60
2023-03-17T16:15:57.547Z,16.60
2023-03-17T16:18:02.293Z,16.60
2023-03-17T16:20:17.902Z,16.60
2023-03-17T16:22:42.048Z,16.60
2023-03-17T16:24:43.803Z,16.60
2023-03-17T16:26:45.629Z,16.60
2023-03-17T16:28:50.099Z,16.50
2023-03-17T16:30:53.486Z,16.60
2023-03-17T16:33:02.208Z,16.50
2023-03-17T16:35:14.881Z,16.50
2023-03-17T16:37:17.053Z,16.50
2023-03-17T16:39:25.604Z,16.50
2023-03-17T16:41:34.506Z,16.50
2023-03-17T16:43:37.932Z,16.50
2023-03-17T16:45:39.789Z,16.40
2023-03-17T16:47:41.477Z,16.40
2023-03-17T16:49:43.188Z,16.40
2023-03-17T16:51:45.447Z,16.40
2023-03-17T16:53:47.480Z,16.40
2023-03-17T16:55:57.580Z,16.40
2023-03-17T16:58:04.869Z,16.40
2023-03-17T17:00:07.962Z,16.40
2023-03-17T17:02:15.900Z,16.40
2023-03-17T17:04:18.631Z,16.40
2023-03-17T17:06:22.249Z,16.40
2023-03-17T17:08:24.071Z,16.40
2023-03-17T17:10:27.653Z,16.40
2023-03-17T17:12:31.324Z,16.30
2023-03-17T17:14:32.993Z,16.30
2023-03-17T17:16:37.110Z,16.30
2023-03-17T17:18:41.136Z,16.30
2023-03-17T17:20:43.805Z,16.30
2023-03-17T17:22:46.885Z,16.20
2023-03-17T17:24:51.491Z,16.20
2023-03-17T17:27:01.019Z,16.20
2023-03-17T17:29:12.241Z,16.20
2023-03-17T17:31:14.671Z,16.20
2023-03-17T17:33:17.824Z,16.20
2023-03-17T17:35:20.186Z,16.20
2023-03-17T17:37:24.036Z,16.20
2023-03-17T17:39:25.812Z,16.10
2023-03-17T17:41:27.572Z,16.10
2023-03-17T17:43:29.797Z,16.10
2023-03-17T17:45:32.546Z,16.10
2023-03-17T17:47:34.591Z,16.10
2023-03-17T17:49:40.026Z,16.10
2023-03-17T17:51:41.675Z,16.10
2023-03-17T17:53:43.635Z,16.10
2023-03-17T17:55:47.903Z,16.00
2023-03-17T17:57:52.303Z,16.00
2023-03-17T17:59:54.808Z,16.00
2023-03-17T18:02:04.105Z,16.00
2023-03-17T18:04:06.189Z,16.00
2023-03-17T18:06:12.966Z,16.00
2023-03-17T18:08:15.283Z,16.00
2023-03-17T18:10:26.710Z,16.00
2023-03-17T18:12:28.448Z,16.00
2023-03-17T18:14:32.532Z,16.00
2023-03-17T18:16:37.800Z,16.00
2023-03-17T18:18:42.256Z,16.00
2023-03-17T18:20:43.971Z,15.90
2023-03-17T18:22:45.955Z,16.00
2023-03-17T18:24:49.094Z,16.00
2023-03-17T18:26:53.883Z,16.00
2023-03-17T18:28:55.861Z,16.00
2023-03-17T18:31:04.965Z,15.90
2023-03-17T18:33:16.474Z,15.90
2023-03-17T18:35:20.789Z,15.90
2023-03-17T18:37:22.615Z,15.90
2023-03-17T18:39:24.250Z,15.90
2023-03-17T18:41:27.078Z,15.90
2023-03-17T18:43:28.939Z,15.90
2023-03-17T18:45:30.603Z,15.90
2023-03-17T18:47:32.529Z,15.90
2023-03-17T18:49:34.699Z,15.90
2023-03-17T18:51:38.809Z,15.90
2023-03-17T18:53:40.576Z,15.90
2023-03-17T18:55:42.498Z,15.90
2023-03-17T18:57:45.085Z,15.90
2023-03-17T18:59:47.987Z,15.90
2023-03-17T19:01:49.759Z,15.80
2023-03-17T19:03:51.958Z,15.80
2023-03-17T19:05:54.746Z,15.80
2023-03-17T19:07:56.374Z,15.80
2023-03-17T19:09:58.135Z,15.80
2023-03-17T19:11:59.747Z,15.80
2023-03-17T19:14:04.892Z,15.80
2023-03-17T19:16:10.418Z,15.80
2023-03-17T19:18:12.128Z,15.80
2023-03-17T19:20:14.231Z,15.80
2023-03-17T19:22:19.459Z,15.80
2023-03-17T19:24:21.846Z,15.80
2023-03-17T19:26:23.564Z,15.80
2023-03-17T19:28:25.581Z,15.80
2023-03-17T19:30:27.486Z,15.80
2023-03-17T19:32:29.294Z,15.80
2023-03-17T19:34:31.096Z,15.80
2023-03-17T19:36:36.968Z,15.80
2023-03-17T19:38:41.961Z,15.80
2023-03-17T19:40:43.731Z,15.80
2023-03-17T19:42:45.661Z,15.70
2023-03-17T19:44:47.373Z,15.70
2023-03-17T19:46:49.803Z,15.70
2023-03-17T19:48:53.620Z,15.70
2023-03-17T19:50:55.340Z,15.70
2023-03-17T19:52:57.386Z,15.70
2023-03-17T19:54:59.798Z,15.70
2023-03-17T19:57:05.081Z,15.80
2023-03-17T19:59:08.770Z,15.70
2023-03-17T20:01:12.887Z,15.80
2023-03-17T20:03:23.796Z,15.80
2023-03-17T20:05:27.288Z,15.80
2023-03-17T20:07:29.033Z,15.80
2023-03-17T20:09:34.116Z,15.80
2023-03-17T20:11:36.222Z,15.80
2023-03-17T20:13:38.356Z,15.80
2023-03-17T20:15:40.912Z,15.80
2023-03-17T20:17:48.281Z,15.80
2023-03-17T20:19:49.950Z,15.80
2023-03-17T20:21:55.281Z,15.80
2023-03-17T20:23:57.082Z,15.80
2023-03-17T20:25:58.837Z,15.80
2023-03-17T20:28:04.149Z,15.80
2023-03-17T20:30:08.362Z,15.80
2023-03-17T20:32:11.471Z,15.80
2023-03-17T20:34:13.685Z,15.70
2023-03-17T20:36:15.557Z,15.70
2023-03-17T20:38:19.582Z,15.70
2023-03-17T20:40:21.377Z,15.70
2023-03-17T20:42:23.843Z,15.70
2023-03-17T20:44:25.721Z,15.60
2023-03-17T20:46:27.427Z,15.60
2023-03-17T20:48:32.846Z,15.50
2023-03-17T20:50:38.342Z,15.60
2023-03-17T20:52:41.802Z,15.50
2023-03-17T20:54:43.570Z,15.50
2023-03-17T20:56:52.336Z,15.40
2023-03-17T20:58:56.031Z,15.40
2023-03-17T21:01:01.744Z,15.40
2023-03-17T21:03:03.758Z,15.30
2023-03-17T21:05:07.306Z,15.30
2023-03-17T21:07:11.500Z,15.30
2023-03-17T21:09:13.404Z,15.20
2023-03-17T21:11:18.819Z,15.20
2023-03-17T21:13:20.548Z,15.20
2023-03-17T21:15:23.621Z,15.20
2023-03-17T21:17:26.385Z,15.10
2023-03-17T21:19:29.616Z,15.10
2023-03-17T21:21:32.221Z,15.10
2023-03-17T21:23:33.936Z,15.00
2023-03-17T21:25:38.495Z,15.00
2023-03-17T21:27:40.883Z,14.90
2023-03-17T21:29:42.623Z,14.90
2023-03-17T21:31:44.582Z,14.80
2023-03-17T21:33:50.315Z,14.80
2023-03-17T21:35:52.257Z,14.70
2023-03-17T21:37:54.686Z,14.70
2023-03-17T21:39:56.698Z,14.60
2023-03-17T21:42:02.118Z,14.60
2023-03-17T21:44:08.276Z,14.50
2023-03-17T21:46:14.858Z,14.40
2023-03-17T21:48:17.381Z,14.40
2023-03-17T21:50:22.384Z,14.40
2023-03-17T21:52:25.331Z,14.30
2023-03-17T21:54:27.037Z,14.30
2023-03-17T21:56:29.571Z,14.30
2023-03-17T21:58:31.273Z,14.20
2023-03-17T22:00:44.695Z,14.20
2023-03-17T22:02:47.107Z,14.20
2023-03-17T22:04:49.490Z,14.10
2023-03-17T22:06:51.977Z,14.10
2023-03-17T22:08:54.043Z,14.10
2023-03-17T22:10:55.730Z,14.10
2023-03-17T22:12:57.385Z,14.10
2023-03-17T22:15:01.610Z,14.00
2023-03-17T22:17:05.272Z,14.00
2023-03-17T22:19:11.537Z,14.00
2023-03-17T22:21:13.486Z,14.00
2023-03-17T22:23:21.046Z,14.00
2023-03-17T22:25:25.826Z,14.00
2023-03-17T22:27:27.589Z,14.00
2023-03-17T22:29:29.342Z,14.00
2023-03-17T22:31:31.367Z,13.90
2023-03-17T22:33:33.512Z,13.90
2023-03-17T22:35:37.797Z,13.90
2023-03-17T22:37:42.377Z,13.90
2023-03-17T22:39:44.557Z,13.80
2023-03-17T22:41:48.419Z,13.80
2023-03-17T22:43:50.994Z,13.80
2023-03-17T22:45:52.820Z,13.80
2023-03-17T22:47:55.926Z,13.70
2023-03-17T22:49:57.880Z,13.70
2023-03-17T22:52:02.998Z,13.70
2023-03-17T22:54:08.518Z,13.60
2023-03-17T22:56:15.114Z,13.50
2023-03-17T22:58:16.845Z,13.60
2023-03-17T23:00:19.551Z,13.60
2023-03-17T23:02:25.022Z,13.60
2023-03-17T23:04:27.109Z,13.60
2023-03-17T23:06:28.975Z,13.60
2023-03-17T23:08:32.069Z,13.60
2023-03-17T23:10:33.888Z,13.50
2023-03-17T23:12:35.957Z,13.60
2023-03-17T23:14:38.141Z,13.50
2023-03-17T23:16:39.861Z,13.50
2023-03-17T23:18:46.835Z,13.50
2023-03-17T23:20:49.483Z,13.50
2023-03-17T23:22:54.055Z,13.50
2023-03-17T23:24:57.466Z,13.50
2023-03-17T23:26:59.784Z,13.50
2023-03-17T23:29:02.128Z,13.50
2023-03-17T23:31:06.597Z,13.50
2023-03-17T23:33:11.249Z,13.50
2023-03-17T23:35:14.511Z,13.60
2023-03-17T23:37:16.524Z,13.50
2023-03-17T23:39:18.292Z,13.50
2023-03-17T23:41:20.221Z,13.50
2023-03-17T23:43:21.957Z,13.50
2023-03-17T23:45:24.140Z,13.50
2023-03-17T23:47:26.419Z,13.50
2023-03-17T23:49:28.220Z,13.50
2023-03-17T23:51:30.011Z,13.50
2023-03-17T23:53:32.834Z,13.60
2023-03-17T23:55:34.825Z,13.60
2023-03-17T23:57:37.818Z,13.60
2023-03-17T23:59:39.636Z,13.60
